sensor_id;sensor_type;location;lat;lon;timestamp;pressure;altitude;pressure_sealevel;temperature;humidity
21594;BME280;10959;51.328;7.322;2023-04-15T00:01:42;97967.41;;;9.43;59.91
21594;BME280;10959;51.328;7.322;2023-04-15T00:04:09;97971.31;;;9.37;60.02
21594;BME280;10959;51.328;7.322;2023-04-15T00:06:37;97964.22;;;9.36;60.46
21594;BME280;10959;51.328;7.322;2023-04-15T00:09:03;97964.56;;;9.30;60.46
21594;BME280;10959;51.328;7.322;2023-04-15T00:11:30;97959.56;;;9.24;60.06
21594;BME280;10959;51.328;7.322;2023-04-15T00:13:56;97957.81;;;9.23;60.02
21594;BME280;10959;51.328;7.322;2023-04-15T00:16:23;97954.56;;;9.18;60.30
21594;BME280;10959;51.328;7.322;2023-04-15T00:18:50;97955.78;;;9.12;60.53
21594;BME280;10959;51.328;7.322;2023-04-15T00:21:17;97959.50;;;9.09;60.24
21594;BME280;10959;51.328;7.322;2023-04-15T00:23:45;97962.00;;;9.12;60.16
21594;BME280;10959;51.328;7.322;2023-04-15T00:26:13;97960.25;;;9.11;60.40
21594;BME280;10959;51.328;7.322;2023-04-15T00:28:40;97965.63;;;9.11;60.36
21594;BME280;10959;51.328;7.322;2023-04-15T00:31:06;97956.72;;;9.11;60.96
21594;BME280;10959;51.328;7.322;2023-04-15T00:33:33;97960.44;;;9.08;60.89
21594;BME280;10959;51.328;7.322;2023-04-15T00:36:01;97950.50;;;9.10;60.21
21594;BME280;10959;51.328;7.322;2023-04-15T00:38:28;97951.63;;;9.06;60.85
21594;BME280;10959;51.328;7.322;2023-04-15T00:40:56;97945.81;;;8.98;60.95
21594;BME280;10959;51.328;7.322;2023-04-15T00:43:22;97944.25;;;8.94;60.74
21594;BME280;10959;51.328;7.322;2023-04-15T00:45:51;97943.47;;;8.92;61.11
21594;BME280;10959;51.328;7.322;2023-04-15T00:48:19;97945.38;;;8.90;60.92
21594;BME280;10959;51.328;7.322;2023-04-15T00:50:45;97945.72;;;8.84;61.34
21594;BME280;10959;51.328;7.322;2023-04-15T00:53:12;97942.25;;;8.81;61.67
21594;BME280;10959;51.328;7.322;2023-04-15T00:55:38;97945.19;;;8.77;61.31
21594;BME280;10959;51.328;7.322;2023-04-15T00:58:06;97939.28;;;8.70;61.35
21594;BME280;10959;51.328;7.322;2023-04-15T01:00:33;97937.59;;;8.69;61.87
21594;BME280;10959;51.328;7.322;2023-04-15T01:03:00;97938.63;;;8.67;61.99
21594;BME280;10959;51.328;7.322;2023-04-15T01:05:27;97942.97;;;8.69;61.43
21594;BME280;10959;51.328;7.322;2023-04-15T01:07:54;97937.78;;;8.66;61.69
21594;BME280;10959;51.328;7.322;2023-04-15T01:10:20;97940.53;;;8.64;62.02
21594;BME280;10959;51.328;7.322;2023-04-15T01:12:47;97947.69;;;8.64;61.93
21594;BME280;10959;51.328;7.322;2023-04-15T01:15:15;97940.53;;;8.64;61.58
21594;BME280;10959;51.328;7.322;2023-04-15T01:17:42;97934.47;;;8.61;61.89
21594;BME280;10959;51.328;7.322;2023-04-15T01:20:08;97936.38;;;8.59;61.80
21594;BME280;10959;51.328;7.322;2023-04-15T01:22:36;97940.00;;;8.58;61.75
21594;BME280;10959;51.328;7.322;2023-04-15T01:25:05;97932.91;;;8.57;61.91
21594;BME280;10959;51.328;7.322;2023-04-15T01:27:38;97940.34;;;8.52;61.71
21594;BME280;10959;51.328;7.322;2023-04-15T01:30:06;97940.34;;;8.52;62.53
21594;BME280;10959;51.328;7.322;2023-04-15T01:32:32;97949.97;;;8.38;63.38
21594;BME280;10959;51.328;7.322;2023-04-15T01:34:59;97943.03;;;8.34;63.19
21594;BME280;10959;51.328;7.322;2023-04-15T01:37:25;97953.94;;;8.31;63.57
21594;BME280;10959;51.328;7.322;2023-04-15T01:39:52;97955.13;;;8.25;63.90
21594;BME280;10959;51.328;7.322;2023-04-15T01:42:20;97951.47;;;8.10;64.43
21594;BME280;10959;51.328;7.322;2023-04-15T01:44:48;97955.28;;;8.06;64.92
21594;BME280;10959;51.328;7.322;2023-04-15T01:47:14;97955.75;;;7.97;65.08
21594;BME280;10959;51.328;7.322;2023-04-15T01:49:40;97954.72;;;8.00;64.77
21594;BME280;10959;51.328;7.322;2023-04-15T01:52:07;97951.78;;;8.04;65.26
21594;BME280;10959;51.328;7.322;2023-04-15T01:54:33;97951.66;;;8.07;64.59
21594;BME280;10959;51.328;7.322;2023-04-15T01:57:00;97953.19;;;8.11;64.49
21594;BME280;10959;51.328;7.322;2023-04-15T01:59:28;97957.53;;;8.14;64.46
21594;BME280;10959;51.328;7.322;2023-04-15T02:01:56;97949.03;;;8.06;64.00
21594;BME280;10959;51.328;7.322;2023-04-15T02:04:23;97958.03;;;8.05;64.11
21594;BME280;10959;51.328;7.322;2023-04-15T02:06:49;97953.78;;;8.01;64.23
21594;BME280;10959;51.328;7.322;2023-04-15T02:09:16;97959.41;;;7.96;64.13
21594;BME280;10959;51.328;7.322;2023-04-15T02:11:42;97948.66;;;7.96;64.00
21594;BME280;10959;51.328;7.322;2023-04-15T02:14:09;97950.72;;;7.91;64.15
21594;BME280;10959;51.328;7.322;2023-04-15T02:16:35;97954.66;;;7.84;64.11
21594;BME280;10959;51.328;7.322;2023-04-15T02:19:03;97953.81;;;7.83;64.66
21594;BME280;10959;51.328;7.322;2023-04-15T02:21:29;97958.28;;;7.83;64.73
21594;BME280;10959;51.328;7.322;2023-04-15T02:23:56;97959.84;;;7.87;65.00
21594;BME280;10959;51.328;7.322;2023-04-15T02:26:22;97957.00;;;7.90;64.75
21594;BME280;10959;51.328;7.322;2023-04-15T02:28:50;97958.84;;;7.89;65.42
21594;BME280;10959;51.328;7.322;2023-04-15T02:31:16;97966.63;;;7.94;65.43
21594;BME280;10959;51.328;7.322;2023-04-15T02:33:43;97961.09;;;7.97;65.16
21594;BME280;10959;51.328;7.322;2023-04-15T02:36:11;97955.56;;;8.00;64.93
21594;BME280;10959;51.328;7.322;2023-04-15T02:38:37;97962.84;;;7.98;64.37
21594;BME280;10959;51.328;7.322;2023-04-15T02:41:04;97957.47;;;7.98;63.97
21594;BME280;10959;51.328;7.322;2023-04-15T02:43:31;97947.41;;;7.86;64.78
21594;BME280;10959;51.328;7.322;2023-04-15T02:45:57;97955.59;;;7.83;64.67
21594;BME280;10959;51.328;7.322;2023-04-15T02:48:24;97971.59;;;7.84;64.76
21594;BME280;10959;51.328;7.322;2023-04-15T02:50:51;97970.75;;;7.84;64.02
21594;BME280;10959;51.328;7.322;2023-04-15T02:53:19;97971.75;;;7.81;64.44
21594;BME280;10959;51.328;7.322;2023-04-15T02:55:45;97974.38;;;7.83;64.05
21594;BME280;10959;51.328;7.322;2023-04-15T02:58:12;97978.16;;;7.78;64.14
21594;BME280;10959;51.328;7.322;2023-04-15T03:00:38;97979.03;;;7.79;63.93
21594;BME280;10959;51.328;7.322;2023-04-15T03:03:05;97976.44;;;7.77;63.92
21594;BME280;10959;51.328;7.322;2023-04-15T03:05:31;97976.44;;;7.77;64.00
21594;BME280;10959;51.328;7.322;2023-04-15T03:07:58;97980.22;;;7.73;63.82
21594;BME280;10959;51.328;7.322;2023-04-15T03:10:26;97984.69;;;7.73;63.84
21594;BME280;10959;51.328;7.322;2023-04-15T03:12:53;97985.75;;;7.70;63.92
21594;BME280;10959;51.328;7.322;2023-04-15T03:15:19;97984.84;;;7.70;63.84
21594;BME280;10959;51.328;7.322;2023-04-15T03:17:46;97989.50;;;7.66;63.72
21594;BME280;10959;51.328;7.322;2023-04-15T03:20:13;97986.91;;;7.65;64.38
21594;BME280;10959;51.328;7.322;2023-04-15T03:22:40;97995.03;;;7.63;64.03
21594;BME280;10959;51.328;7.322;2023-04-15T03:25:07;97995.16;;;7.60;63.92
21594;BME280;10959;51.328;7.322;2023-04-15T03:27:34;98002.44;;;7.58;63.84
21594;BME280;10959;51.328;7.322;2023-04-15T03:30:01;97995.31;;;7.57;63.96
21594;BME280;10959;51.328;7.322;2023-04-15T03:32:27;98000.84;;;7.54;64.21
21594;BME280;10959;51.328;7.322;2023-04-15T03:34:54;98001.00;;;7.51;64.16
21594;BME280;10959;51.328;7.322;2023-04-15T03:37:20;97999.25;;;7.50;64.27
21594;BME280;10959;51.328;7.322;2023-04-15T03:39:47;97994.06;;;7.47;64.48
21594;BME280;10959;51.328;7.322;2023-04-15T03:42:13;97990.44;;;7.48;64.45
21594;BME280;10959;51.328;7.322;2023-04-15T03:44:42;98001.31;;;7.44;63.80
21594;BME280;10959;51.328;7.322;2023-04-15T03:47:08;97992.47;;;7.42;64.08
21594;BME280;10959;51.328;7.322;2023-04-15T03:49:35;98002.34;;;7.42;64.31
21594;BME280;10959;51.328;7.322;2023-04-15T03:52:01;98005.38;;;7.34;64.23
21594;BME280;10959;51.328;7.322;2023-04-15T03:54:28;98005.53;;;7.31;64.24
21594;BME280;10959;51.328;7.322;2023-04-15T03:56:55;98004.84;;;7.28;64.58
21594;BME280;10959;51.328;7.322;2023-04-15T03:59:21;98001.41;;;7.24;64.59
21594;BME280;10959;51.328;7.322;2023-04-15T04:01:49;98006.78;;;7.24;64.69
21594;BME280;10959;51.328;7.322;2023-04-15T04:04:16;98004.09;;;7.24;64.52
21594;BME280;10959;51.328;7.322;2023-04-15T04:06:42;98005.28;;;7.18;64.45
21594;BME280;10959;51.328;7.322;2023-04-15T04:09:09;98004.41;;;7.18;64.61
21594;BME280;10959;51.328;7.322;2023-04-15T04:11:35;98009.75;;;7.18;64.75
21594;BME280;10959;51.328;7.322;2023-04-15T04:14:02;98005.41;;;7.15;64.70
21594;BME280;10959;51.328;7.322;2023-04-15T04:16:29;98010.94;;;7.12;64.27
21594;BME280;10959;51.328;7.322;2023-04-15T04:18:57;98015.44;;;7.12;64.50
21594;BME280;10959;51.328;7.322;2023-04-15T04:21:23;98012.09;;;7.06;64.84
21594;BME280;10959;51.328;7.322;2023-04-15T04:23:51;98015.69;;;7.05;64.69
21594;BME280;10959;51.328;7.322;2023-04-15T04:26:17;98018.47;;;7.04;64.66
21594;BME280;10959;51.328;7.322;2023-04-15T04:28:44;98023.81;;;7.04;64.71
21594;BME280;10959;51.328;7.322;2023-04-15T04:31:10;98026.56;;;7.02;64.46
21594;BME280;10959;51.328;7.322;2023-04-15T04:33:37;98026.56;;;7.02;64.46
21594;BME280;10959;51.328;7.322;2023-04-15T04:36:05;98026.88;;;6.96;64.13
21594;BME280;10959;51.328;7.322;2023-04-15T04:38:32;98028.56;;;6.97;64.94
21594;BME280;10959;51.328;7.322;2023-04-15T04:40:59;98026.88;;;6.96;64.74
21594;BME280;10959;51.328;7.322;2023-04-15T04:43:25;98027.94;;;6.92;64.87
21594;BME280;10959;51.328;7.322;2023-04-15T04:45:52;98030.63;;;6.92;64.37
21594;BME280;10959;51.328;7.322;2023-04-15T04:48:18;98036.13;;;6.89;64.85
21594;BME280;10959;51.328;7.322;2023-04-15T04:50:45;98043.19;;;6.90;64.90
21594;BME280;10959;51.328;7.322;2023-04-15T04:53:13;98046.84;;;6.89;64.64
21594;BME280;10959;51.328;7.322;2023-04-15T04:55:40;98051.28;;;6.88;65.09
21594;BME280;10959;51.328;7.322;2023-04-15T04:58:06;98046.94;;;6.86;65.44
21594;BME280;10959;51.328;7.322;2023-04-15T05:00:33;98049.63;;;6.86;65.30
21594;BME280;10959;51.328;7.322;2023-04-15T05:02:59;98052.31;;;6.86;65.44
21594;BME280;10959;51.328;7.322;2023-04-15T05:05:26;98059.41;;;6.87;65.47
21594;BME280;10959;51.328;7.322;2023-04-15T05:07:52;98057.53;;;6.89;65.28
21594;BME280;10959;51.328;7.322;2023-04-15T05:10:20;98048.53;;;6.90;65.72
21594;BME280;10959;51.328;7.322;2023-04-15T05:12:47;98055.72;;;6.89;66.21
21594;BME280;10959;51.328;7.322;2023-04-15T05:15:13;98052.03;;;6.92;66.20
21594;BME280;10959;51.328;7.322;2023-04-15T05:17:40;98058.97;;;6.96;66.17
21594;BME280;10959;51.328;7.322;2023-04-15T05:20:07;98062.50;;;6.97;66.09
21594;BME280;10959;51.328;7.322;2023-04-15T05:22:34;98073.16;;;6.98;66.19
21594;BME280;10959;51.328;7.322;2023-04-15T05:25:00;98075.81;;;6.98;65.95
21594;BME280;10959;51.328;7.322;2023-04-15T05:27:28;98072.00;;;7.04;65.77
21594;BME280;10959;51.328;7.322;2023-04-15T05:29:55;98082.56;;;7.07;66.06
21594;BME280;10959;51.328;7.322;2023-04-15T05:32:21;98079.94;;;7.05;65.93
21594;BME280;10959;51.328;7.322;2023-04-15T05:34:48;98080.75;;;7.07;66.22
21594;BME280;10959;51.328;7.322;2023-04-15T05:37:14;98085.16;;;7.08;66.11
21594;BME280;10959;51.328;7.322;2023-04-15T05:39:41;98094.22;;;7.06;66.64
21594;BME280;10959;51.328;7.322;2023-04-15T05:42:07;98092.03;;;6.95;67.67
21594;BME280;10959;51.328;7.322;2023-04-15T05:44:35;98109.16;;;6.91;68.26
21594;BME280;10959;51.328;7.322;2023-04-15T05:47:01;98105.72;;;6.89;68.36
21594;BME280;10959;51.328;7.322;2023-04-15T05:49:29;98116.25;;;6.92;68.53
21594;BME280;10959;51.328;7.322;2023-04-15T05:51:56;98111.84;;;6.91;68.52
21594;BME280;10959;51.328;7.322;2023-04-15T05:54:22;98110.75;;;6.95;68.56
21594;BME280;10959;51.328;7.322;2023-04-15T05:56:49;98118.34;;;7.04;67.99
21594;BME280;10959;51.328;7.322;2023-04-15T05:59:15;98115.41;;;7.11;68.00
21594;BME280;10959;51.328;7.322;2023-04-15T06:01:43;98117.00;;;7.15;67.95
21594;BME280;10959;51.328;7.322;2023-04-15T06:04:10;98122.38;;;7.15;69.36
21594;BME280;10959;51.328;7.322;2023-04-15T06:06:36;98122.91;;;7.21;69.30
21594;BME280;10959;51.328;7.322;2023-04-15T06:09:03;98120.63;;;7.14;70.60
21594;BME280;10959;51.328;7.322;2023-04-15T06:11:30;98125.19;;;7.12;71.28
21594;BME280;10959;51.328;7.322;2023-04-15T06:13:56;98127.97;;;7.08;71.33
21594;BME280;10959;51.328;7.322;2023-04-15T06:16:23;98126.50;;;7.22;71.29
21594;BME280;10959;51.328;7.322;2023-04-15T06:18:51;98128.88;;;7.28;71.23
21594;BME280;10959;51.328;7.322;2023-04-15T06:21:17;98127.13;;;7.27;71.80
21594;BME280;10959;51.328;7.322;2023-04-15T06:23:44;98131.69;;;7.25;72.36
21594;BME280;10959;51.328;7.322;2023-04-15T06:26:11;98128.88;;;7.28;72.25
21594;BME280;10959;51.328;7.322;2023-04-15T06:28:37;98141.19;;;7.32;72.38
21594;BME280;10959;51.328;7.322;2023-04-15T06:31:04;98138.84;;;7.43;72.12
21594;BME280;10959;51.328;7.322;2023-04-15T06:33:30;98136.53;;;7.55;71.41
21594;BME280;10959;51.328;7.322;2023-04-15T06:35:58;98141.59;;;7.61;71.25
21594;BME280;10959;51.328;7.322;2023-04-15T06:38:25;98152.75;;;7.52;72.36
21594;BME280;10959;51.328;7.322;2023-04-15T06:40:51;98144.81;;;7.50;73.05
21594;BME280;10959;51.328;7.322;2023-04-15T06:43:18;98157.81;;;7.58;73.21
21594;BME280;10959;51.328;7.322;2023-04-15T06:45:44;98159.56;;;7.59;73.37
21594;BME280;10959;51.328;7.322;2023-04-15T06:48:11;98162.59;;;7.70;73.36
21594;BME280;10959;51.328;7.322;2023-04-15T06:50:37;98158.69;;;7.77;74.06
21594;BME280;10959;51.328;7.322;2023-04-15T06:53:06;98163.25;;;7.93;73.80
21594;BME280;10959;51.328;7.322;2023-04-15T06:55:32;98162.22;;;8.15;73.35
21594;BME280;10959;51.328;7.322;2023-04-15T06:57:59;98165.06;;;8.29;72.73
21594;BME280;10959;51.328;7.322;2023-04-15T07:00:25;98159.22;;;8.38;72.40
21594;BME280;10959;51.328;7.322;2023-04-15T07:02:52;98164.25;;;8.46;72.62
21594;BME280;10959;51.328;7.322;2023-04-15T07:05:19;98165.75;;;8.52;72.41
21594;BME280;10959;51.328;7.322;2023-04-15T07:07:46;98175.03;;;8.62;72.11
21594;BME280;10959;51.328;7.322;2023-04-15T07:10:13;98178.50;;;8.64;71.86
21594;BME280;10959;51.328;7.322;2023-04-15T07:12:40;98168.50;;;8.68;71.71
21594;BME280;10959;51.328;7.322;2023-04-15T07:15:07;98175.34;;;8.73;72.46
21594;BME280;10959;51.328;7.322;2023-04-15T07:17:34;98175.97;;;8.78;71.74
21594;BME280;10959;51.328;7.322;2023-04-15T07:20:01;98168.53;;;8.84;71.86
21594;BME280;10959;51.328;7.322;2023-04-15T07:22:28;98170.22;;;8.86;72.26
21594;BME280;10959;51.328;7.322;2023-04-15T07:24:55;98170.22;;;8.86;71.86
21594;BME280;10959;51.328;7.322;2023-04-15T07:27:23;98179.75;;;8.92;71.72
21594;BME280;10959;51.328;7.322;2023-04-15T07:29:50;98179.13;;;8.87;73.01
21594;BME280;10959;51.328;7.322;2023-04-15T07:32:16;98181.63;;;8.90;73.44
21594;BME280;10959;51.328;7.322;2023-04-15T07:34:43;98180.53;;;8.94;73.07
21594;BME280;10959;51.328;7.322;2023-04-15T07:37:09;98181.16;;;8.99;73.75
21594;BME280;10959;51.328;7.322;2023-04-15T07:39:36;98188.03;;;9.05;73.09
21594;BME280;10959;51.328;7.322;2023-04-15T07:42:02;98187.59;;;9.12;73.44
21594;BME280;10959;51.328;7.322;2023-04-15T07:44:30;98190.28;;;9.12;73.73
21594;BME280;10959;51.328;7.322;2023-04-15T07:46:57;98197.16;;;9.18;73.85
21594;BME280;10959;51.328;7.322;2023-04-15T07:49:23;98197.53;;;9.28;73.34
21594;BME280;10959;51.328;7.322;2023-04-15T07:51:50;98199.28;;;9.29;73.80
21594;BME280;10959;51.328;7.322;2023-04-15T07:54:16;98198.41;;;9.44;73.46
21594;BME280;10959;51.328;7.322;2023-04-15T07:56:43;98199.13;;;9.64;72.77
21594;BME280;10959;51.328;7.322;2023-04-15T07:59:09;98205.22;;;9.83;72.56
21594;BME280;10959;51.328;7.322;2023-04-15T08:01:37;98201.06;;;9.94;72.25
21594;BME280;10959;51.328;7.322;2023-04-15T08:04:04;98200.38;;;10.06;72.72
21594;BME280;10959;51.328;7.322;2023-04-15T08:06:30;98194.97;;;10.06;72.52
21594;BME280;10959;51.328;7.322;2023-04-15T08:08:57;98207.72;;;10.18;71.85
21594;BME280;10959;51.328;7.322;2023-04-15T08:11:23;98204.69;;;10.09;71.63
21594;BME280;10959;51.328;7.322;2023-04-15T08:13:51;98207.97;;;10.30;71.43
21594;BME280;10959;51.328;7.322;2023-04-15T08:16:18;98212.28;;;10.48;71.28
21594;BME280;10959;51.328;7.322;2023-04-15T08:18:48;98207.25;;;10.58;70.81
21594;BME280;10959;51.328;7.322;2023-04-15T08:21:15;98211.09;;;10.68;70.53
21594;BME280;10959;51.328;7.322;2023-04-15T08:23:42;98211.75;;;10.58;70.11
21594;BME280;10959;51.328;7.322;2023-04-15T08:26:09;98208.03;;;10.44;70.87
21594;BME280;10959;51.328;7.322;2023-04-15T08:28:37;98204.25;;;10.63;70.74
21594;BME280;10959;51.328;7.322;2023-04-15T08:31:04;98207.75;;;10.65;70.14
21594;BME280;10959;51.328;7.322;2023-04-15T08:33:30;98208.19;;;10.87;69.34
21594;BME280;10959;51.328;7.322;2023-04-15T08:35:58;98222.03;;;10.96;69.41
21594;BME280;10959;51.328;7.322;2023-04-15T08:38:25;98218.91;;;11.03;68.56
21594;BME280;10959;51.328;7.322;2023-04-15T08:40:51;98223.25;;;11.06;68.61
21594;BME280;10959;51.328;7.322;2023-04-15T08:43:21;98219.00;;;11.16;68.58
21594;BME280;10959;51.328;7.322;2023-04-15T08:45:51;98218.63;;;11.51;68.41
21594;BME280;10959;51.328;7.322;2023-04-15T08:48:18;98225.47;;;11.57;67.54
21594;BME280;10959;51.328;7.322;2023-04-15T08:50:45;98219.19;;;11.85;67.68
21594;BME280;10959;51.328;7.322;2023-04-15T08:53:14;98231.00;;;12.12;66.85
21594;BME280;10959;51.328;7.322;2023-04-15T08:55:44;98232.28;;;12.20;66.15
21594;BME280;10959;51.328;7.322;2023-04-15T08:58:11;98223.19;;;12.21;65.59
21594;BME280;10959;51.328;7.322;2023-04-15T09:00:38;98220.84;;;12.30;65.63
21594;BME280;10959;51.328;7.322;2023-04-15T09:03:05;98230.09;;;12.25;64.90
21594;BME280;10959;51.328;7.322;2023-04-15T09:05:33;98237.16;;;12.28;65.27
21594;BME280;10959;51.328;7.322;2023-04-15T09:08:01;98231.53;;;12.04;65.00
21594;BME280;10959;51.328;7.322;2023-04-15T09:10:30;98235.59;;;11.97;65.38
21594;BME280;10959;51.328;7.322;2023-04-15T09:12:57;98227.88;;;12.05;65.60
21594;BME280;10959;51.328;7.322;2023-04-15T09:15:24;98240.56;;;12.03;65.45
21594;BME280;10959;51.328;7.322;2023-04-15T09:17:52;98237.84;;;12.17;65.47
21594;BME280;10959;51.328;7.322;2023-04-15T09:20:18;98248.19;;;12.10;64.98
21594;BME280;10959;51.328;7.322;2023-04-15T09:22:46;98255.97;;;12.15;64.96
21594;BME280;10959;51.328;7.322;2023-04-15T09:25:28;98260.06;;;11.79;65.04
21594;BME280;10959;51.328;7.322;2023-04-15T09:27:56;98265.06;;;12.00;65.26
21594;BME280;10959;51.328;7.322;2023-04-15T09:30:23;98258.72;;;12.01;65.44
21594;BME280;10959;51.328;7.322;2023-04-15T09:32:50;98260.63;;;11.99;65.63
21594;BME280;10959;51.328;7.322;2023-04-15T09:35:18;98275.44;;;11.91;65.75
21594;BME280;10959;51.328;7.322;2023-04-15T09:37:45;98275.31;;;11.95;65.64
21594;BME280;10959;51.328;7.322;2023-04-15T09:40:12;98274.50;;;11.78;65.72
21594;BME280;10959;51.328;7.322;2023-04-15T09:45:34;98282.59;;;11.64;66.70
21594;BME280;10959;51.328;7.322;2023-04-15T09:48:15;98274.47;;;11.20;67.90
21594;BME280;10959;51.328;7.322;2023-04-15T09:50:42;98279.69;;;11.52;67.34
21594;BME280;10959;51.328;7.322;2023-04-15T09:53:09;98287.38;;;11.44;67.52
21594;BME280;10959;51.328;7.322;2023-04-15T09:55:36;98292.56;;;11.47;67.40
21594;BME280;10959;51.328;7.322;2023-04-15T09:58:07;98284.94;;;11.25;68.40
21594;BME280;10959;51.328;7.322;2023-04-15T10:00:36;98296.25;;;11.46;67.90
21594;BME280;10959;51.328;7.322;2023-04-15T10:03:04;98291.34;;;11.53;67.76
21594;BME280;10959;51.328;7.322;2023-04-15T10:05:31;98294.03;;;11.53;68.35
21594;BME280;10959;51.328;7.322;2023-04-15T10:07:59;98300.13;;;11.71;68.11
21594;BME280;10959;51.328;7.322;2023-04-15T10:10:26;98294.22;;;11.79;67.61
21594;BME280;10959;51.328;7.322;2023-04-15T10:12:54;98302.41;;;11.91;67.11
21594;BME280;10959;51.328;7.322;2023-04-15T10:15:22;98303.41;;;11.76;67.57
21594;BME280;10959;51.328;7.322;2023-04-15T10:17:52;98306.66;;;11.52;68.05
21594;BME280;10959;51.328;7.322;2023-04-15T10:20:19;98307.91;;;11.75;68.15
21594;BME280;10959;51.328;7.322;2023-04-15T10:22:47;98309.16;;;11.70;67.93
21594;BME280;10959;51.328;7.322;2023-04-15T10:25:14;98312.84;;;11.83;68.29
21594;BME280;10959;51.328;7.322;2023-04-15T10:27:41;98314.28;;;11.89;67.54
21594;BME280;10959;51.328;7.322;2023-04-15T10:30:08;98315.34;;;11.86;67.74
21594;BME280;10959;51.328;7.322;2023-04-15T10:32:36;98317.06;;;11.87;68.02
21594;BME280;10959;51.328;7.322;2023-04-15T10:35:06;98321.53;;;12.03;67.41
21594;BME280;10959;51.328;7.322;2023-04-15T10:37:35;98323.28;;;12.04;67.95
21594;BME280;10959;51.328;7.322;2023-04-15T10:40:23;98318.16;;;11.85;68.09
21594;BME280;10959;51.328;7.322;2023-04-15T10:42:49;98330.00;;;12.11;67.43
21594;BME280;10959;51.328;7.322;2023-04-15T10:45:17;98330.88;;;12.12;67.64
21594;BME280;10959;51.328;7.322;2023-04-15T10:47:44;98333.19;;;12.18;66.99
21594;BME280;10959;51.328;7.322;2023-04-15T10:50:12;98335.41;;;12.11;67.32
21594;BME280;10959;51.328;7.322;2023-04-15T10:52:39;98335.59;;;12.08;67.42
21594;BME280;10959;51.328;7.322;2023-04-15T10:55:12;98333.09;;;11.90;67.57
21594;BME280;10959;51.328;7.322;2023-04-15T10:57:41;98339.25;;;12.07;67.86
21594;BME280;10959;51.328;7.322;2023-04-15T11:00:12;98339.06;;;12.10;67.53
21594;BME280;10959;51.328;7.322;2023-04-15T11:02:44;98341.94;;;12.21;67.32
21594;BME280;10959;51.328;7.322;2023-04-15T11:05:13;98346.59;;;12.05;67.52
21594;BME280;10959;51.328;7.322;2023-04-15T11:07:47;98340.91;;;11.95;67.27
21594;BME280;10959;51.328;7.322;2023-04-15T11:13:31;98348.47;;;11.74;68.01
21594;BME280;10959;51.328;7.322;2023-04-15T11:15:59;98350.72;;;11.82;68.26
21594;BME280;10959;51.328;7.322;2023-04-15T11:18:28;98344.16;;;12.00;67.99
21594;BME280;10959;51.328;7.322;2023-04-15T11:20:58;98348.28;;;11.77;68.62
21594;BME280;10959;51.328;7.322;2023-04-15T11:23:34;98358.97;;;11.64;68.67
21594;BME280;10959;51.328;7.322;2023-04-15T11:26:02;98365.59;;;11.73;69.20
21594;BME280;10959;51.328;7.322;2023-04-15T11:28:31;98361.19;;;11.57;69.41
21594;BME280;10959;51.328;7.322;2023-04-15T11:31:05;98365.94;;;11.38;70.16
21594;BME280;10959;51.328;7.322;2023-04-15T11:33:32;98358.06;;;11.49;70.39
21594;BME280;10959;51.328;7.322;2023-04-15T11:36:01;98372.28;;;11.37;70.66
21594;BME280;10959;51.328;7.322;2023-04-15T11:38:27;98371.00;;;11.28;71.03
21594;BME280;10959;51.328;7.322;2023-04-15T11:40:54;98367.09;;;11.34;71.03
21594;BME280;10959;51.328;7.322;2023-04-15T11:43:22;98382.16;;;11.52;70.17
21594;BME280;10959;51.328;7.322;2023-04-15T11:45:50;98378.31;;;11.56;70.17
21594;BME280;10959;51.328;7.322;2023-04-15T11:48:19;98376.03;;;11.65;69.85
21594;BME280;10959;51.328;7.322;2023-04-15T11:50:51;98380.59;;;11.48;70.62
21594;BME280;10959;51.328;7.322;2023-04-15T11:53:19;98378.31;;;11.56;70.25
21594;BME280;10959;51.328;7.322;2023-04-15T11:55:47;98385.06;;;11.64;70.02
21594;BME280;10959;51.328;7.322;2023-04-15T11:58:15;98382.78;;;11.72;70.31
21594;BME280;10959;51.328;7.322;2023-04-15T12:00:46;98389.50;;;11.65;70.16
21594;BME280;10959;51.328;7.322;2023-04-15T12:03:23;98393.47;;;11.43;70.49
21594;BME280;10959;51.328;7.322;2023-04-15T12:06:14;98390.91;;;11.26;71.18
21594;BME280;10959;51.328;7.322;2023-04-15T12:08:58;98396.41;;;11.24;71.50
21594;BME280;10959;51.328;7.322;2023-04-15T12:11:33;98407.03;;;11.57;70.54
21594;BME280;10959;51.328;7.322;2023-04-15T12:14:03;98408.53;;;11.62;70.14
21594;BME280;10959;51.328;7.322;2023-04-15T12:16:31;98421.28;;;11.59;71.28
21594;BME280;10959;51.328;7.322;2023-04-15T12:18:59;98408.38;;;11.65;70.78
21594;BME280;10959;51.328;7.322;2023-04-15T12:21:27;98429.78;;;11.68;70.73
21594;BME280;10959;51.328;7.322;2023-04-15T12:24:01;98419.19;;;11.65;70.84
21594;BME280;10959;51.328;7.322;2023-04-15T12:26:29;98427.06;;;11.68;70.81
21594;BME280;10959;51.328;7.322;2023-04-15T12:29:00;98422.91;;;11.62;71.18
21594;BME280;10959;51.328;7.322;2023-04-15T12:31:27;98433.22;;;11.70;71.33
21594;BME280;10959;51.328;7.322;2023-04-15T12:33:54;98435.50;;;11.62;71.81
21594;BME280;10959;51.328;7.322;2023-04-15T12:36:21;98431.41;;;11.40;72.61
21594;BME280;10959;51.328;7.322;2023-04-15T12:38:47;98443.94;;;11.41;72.72
21594;BME280;10959;51.328;7.322;2023-04-15T12:41:15;98447.25;;;11.46;72.77
21594;BME280;10959;51.328;7.322;2023-04-15T12:43:43;98453.63;;;11.59;72.79
21594;BME280;10959;51.328;7.322;2023-04-15T12:46:09;98448.63;;;11.53;72.96
21594;BME280;10959;51.328;7.322;2023-04-15T12:48:36;98454.53;;;11.44;73.16
21594;BME280;10959;51.328;7.322;2023-04-15T12:51:02;98455.91;;;11.51;73.27
21594;BME280;10959;51.328;7.322;2023-04-15T12:53:29;98452.78;;;11.43;73.36
21594;BME280;10959;51.328;7.322;2023-04-15T12:55:55;98463.31;;;11.48;73.62
21594;BME280;10959;51.328;7.322;2023-04-15T12:58:23;98465.13;;;11.47;73.48
21594;BME280;10959;51.328;7.322;2023-04-15T13:00:50;98462.44;;;11.47;73.64
21594;BME280;10959;51.328;7.322;2023-04-15T13:03:16;98474.72;;;11.37;74.05
21594;BME280;10959;51.328;7.322;2023-04-15T13:05:43;98467.59;;;11.36;74.38
21594;BME280;10959;51.328;7.322;2023-04-15T13:08:09;98474.53;;;11.40;74.24
21594;BME280;10959;51.328;7.322;2023-04-15T13:10:36;98479.97;;;11.24;74.41
21594;BME280;10959;51.328;7.322;2023-04-15T13:13:03;98480.03;;;11.38;74.46
21594;BME280;10959;51.328;7.322;2023-04-15T13:15:31;98482.03;;;11.35;74.68